»·PEaware :: N772WW KFAT-KJAC

N772WW :: KFAT-KJAC

FLIGHT INFORMATION

Flight Status: Arrived
Operator: Privately registered:
United States
More flights under this callsign
Pilot: Thomas S. (17015)
Aircraft: SOCATA TBM-900
(TBM9)
More flights by this aircraft type
Origin: KFAT Fresno Yosemite Intl
United States
Destination: KJAC Jackson Hole
United States
More flights between these airports :: More routes between these airports
Route: +YOSE3 FRA SLADE RUBII LUNDI
File this flight plan on PilotEdge
Remarks: RMK / SIMBRIEF
Altitude:
(Current/Filed)
29,000ft
Speed:
(Current/Filed)
318kts
Departed: 05-Oct-20 11:29 AM
Arrived: 05-Oct-20 01:34 PM
Distance/Time
Traveled:
580nm/2:05
Distance/Time
To Go:
Arrived

Flight Plot

Page will automatically refresh every two minutes.

Flight plan parsing failed; only flown route is shown


Map Options




Map Legend


Flown Route
Filed Route
Departure Airport
Arrival Airport
Navaid (VOR, NDB)
Fix

Horizontal Profiles

Position Reports

Time Latitude Longitude Heading Altitude Ground
Speed
05-Oct-20 10:32 36.778927 -119.730531 214 336ft 0kts
05-Oct-20 10:33 36.778927 -119.730531 214 336ft 0kts
05-Oct-20 10:35 36.778927 -119.730531 214 336ft 0kts
05-Oct-20 10:36 36.778927 -119.730531 214 336ft 0kts
05-Oct-20 10:37 36.778927 -119.730531 214 336ft 0kts
05-Oct-20 10:38 36.778927 -119.730531 214 336ft 0kts
05-Oct-20 10:39 36.778927 -119.730531 214 336ft 0kts
05-Oct-20 10:40 36.778927 -119.730531 214 336ft 0kts
05-Oct-20 10:41 36.778927 -119.730531 214 336ft 0kts
05-Oct-20 10:42 36.778927 -119.730531 214 336ft 0kts
05-Oct-20 10:43 36.778927 -119.730531 214 336ft 0kts
05-Oct-20 10:44 36.778927 -119.730531 214 336ft 0kts
05-Oct-20 10:45 36.778927 -119.730531 214 336ft 0kts
05-Oct-20 10:46 36.778927 -119.730531 214 336ft 0kts
05-Oct-20 10:47 36.778927 -119.730531 214 336ft 0kts
05-Oct-20 10:48 36.778927 -119.730531 214 336ft 0kts
05-Oct-20 10:49 36.778927 -119.730531 214 336ft 0kts
05-Oct-20 10:50 36.778927 -119.730531 214 336ft 0kts
05-Oct-20 10:51 36.778927 -119.730531 214 336ft 0kts
05-Oct-20 10:51 36.778927 -119.730531 214 336ft 0kts
05-Oct-20 10:52 36.778927 -119.730531 214 336ft 0kts
05-Oct-20 10:54 36.778927 -119.730531 214 336ft 0kts
05-Oct-20 10:54 36.778927 -119.730531 214 336ft 0kts
05-Oct-20 10:55 36.778927 -119.730531 214 336ft 0kts
05-Oct-20 10:57 36.778927 -119.730531 214 336ft 0kts
05-Oct-20 10:57 36.778927 -119.730531 214 336ft 0kts
05-Oct-20 10:58 36.778927 -119.730531 214 336ft 0kts
05-Oct-20 10:59 36.778927 -119.730531 214 336ft 0kts
05-Oct-20 11:00 36.778927 -119.730531 214 336ft 0kts
05-Oct-20 11:01 36.778927 -119.730531 214 336ft 0kts
05-Oct-20 11:02 36.778927 -119.730531 214 336ft 0kts
05-Oct-20 11:03 36.778927 -119.730531 214 336ft 0kts
05-Oct-20 11:04 36.778927 -119.730531 214 336ft 0kts
05-Oct-20 11:05 36.778927 -119.730531 214 336ft 0kts
05-Oct-20 11:06 36.778927 -119.730531 214 336ft 0kts
05-Oct-20 11:07 36.778927 -119.730531 214 336ft 0kts
05-Oct-20 11:08 36.778927 -119.730531 214 336ft 0kts
05-Oct-20 11:09 36.778927 -119.730531 214 336ft 0kts
05-Oct-20 11:10 36.778927 -119.730531 214 336ft 0kts
05-Oct-20 11:11 36.778927 -119.730531 214 336ft 0kts
05-Oct-20 11:12 36.778927 -119.730531 214 336ft 0kts
05-Oct-20 11:13 36.778927 -119.730531 214 336ft 0kts
05-Oct-20 11:14 36.778927 -119.730531 214 336ft 0kts
05-Oct-20 11:15 36.778927 -119.730531 214 336ft 0kts
05-Oct-20 11:16 36.778927 -119.730531 214 336ft 0kts
05-Oct-20 11:17 36.778927 -119.730531 214 336ft 0kts
05-Oct-20 11:18 36.778927 -119.730531 214 336ft 0kts
05-Oct-20 11:19 36.778927 -119.730531 214 336ft 0kts
05-Oct-20 11:20 36.778927 -119.730531 214 336ft 0kts
05-Oct-20 11:21 36.778927 -119.730531 214 336ft 0kts
05-Oct-20 11:22 36.778927 -119.730531 214 336ft 0kts
05-Oct-20 11:23 36.778666 -119.729831 93 336ft 4kts
05-Oct-20 11:24 36.778231 -119.728211 123 336ft 5kts
05-Oct-20 11:25 36.775783 -119.723922 125 336ft 12kts
05-Oct-20 11:26 36.774456 -119.719863 124 336ft 20kts
05-Oct-20 11:27 36.771023 -119.713834 125 336ft 17kts
05-Oct-20 11:28 36.771198 -119.711502 308 336ft 45kts
05-Oct-20 11:29 36.790279 -119.745725 304 1192ft 149kts
05-Oct-20 11:30 36.814211 -119.789368 304 3182ft 157kts
05-Oct-20 11:31 36.838779 -119.832367 334 5229ft 154kts
05-Oct-20 11:32 36.879253 -119.816256 36 7209ft 161kts
05-Oct-20 11:33 36.915058 -119.781311 37 9157ft 166kts
05-Oct-20 11:34 36.952056 -119.745112 37 10962ft 175kts
05-Oct-20 11:35 36.991047 -119.706881 37 12902ft 181kts
05-Oct-20 11:36 37.030838 -119.667821 37 14691ft 184kts
05-Oct-20 11:37 37.071537 -119.627819 37 16299ft 190kts
05-Oct-20 11:38 37.113055 -119.585461 42 18195ft 193kts
05-Oct-20 11:39 37.152960 -119.539109 43 19910ft 199kts
05-Oct-20 11:40 37.193442 -119.492020 43 21796ft 200kts
05-Oct-20 11:41 37.236962 -119.441324 43 23187ft 222kts
05-Oct-20 11:42 37.282467 -119.388231 43 24720ft 226kts
05-Oct-20 11:43 37.330899 -119.331615 43 25856ft 247kts
05-Oct-20 11:44 37.381562 -119.272292 43 27148ft 252kts
05-Oct-20 11:45 37.433504 -119.211355 43 28428ft 259kts
05-Oct-20 11:46 37.487323 -119.148084 43 29305ft 276kts
05-Oct-20 11:47 37.546816 -119.077987 43 29303ft 307kts
05-Oct-20 11:48 37.610700 -119.002540 43 29299ft 320kts
05-Oct-20 11:49 37.676048 -118.925153 43 29302ft 325kts
05-Oct-20 11:50 37.742456 -118.846314 43 29307ft 327kts
05-Oct-20 11:51 37.808749 -118.767420 43 29323ft 328kts
05-Oct-20 11:52 37.875485 -118.687798 43 29342ft 329kts
05-Oct-20 11:53 37.941780 -118.608497 43 29357ft 329kts
05-Oct-20 11:54 38.008018 -118.529030 43 29359ft 329kts
05-Oct-20 11:55 38.074987 -118.448495 43 29357ft 329kts
05-Oct-20 11:56 38.141318 -118.368519 43 29356ft 329kts
05-Oct-20 11:57 38.207348 -118.288685 43 29356ft 329kts
05-Oct-20 11:58 38.273470 -118.208540 43 29350ft 329kts
05-Oct-20 11:59 38.339360 -118.128459 43 29336ft 329kts
05-Oct-20 12:00 38.405784 -118.047534 43 29323ft 329kts
05-Oct-20 12:01 38.471712 -117.966954 43 29331ft 329kts
05-Oct-20 12:02 38.537691 -117.886134 43 29341ft 328kts
05-Oct-20 12:03 38.603527 -117.805267 43 29348ft 328kts
05-Oct-20 12:04 38.669186 -117.724409 43 29348ft 327kts
05-Oct-20 12:05 38.734477 -117.643773 43 29347ft 327kts
05-Oct-20 12:06 38.799856 -117.562792 43 29347ft 326kts
05-Oct-20 12:07 38.865143 -117.481741 43 29347ft 326kts
05-Oct-20 12:08 38.930330 -117.400589 43 29354ft 325kts
05-Oct-20 12:09 38.992611 -117.316936 46 29365ft 324kts
05-Oct-20 12:10 39.054295 -117.233117 46 29375ft 324kts
05-Oct-20 12:11 39.116413 -117.148462 46 29375ft 324kts
05-Oct-20 12:12 39.178295 -117.063927 46 29378ft 324kts
05-Oct-20 12:13 39.240006 -116.979365 46 29385ft 323kts
05-Oct-20 12:14 39.301373 -116.895046 46 29391ft 323kts
05-Oct-20 12:15 39.363172 -116.809921 47 29393ft 323kts
05-Oct-20 12:16 39.424476 -116.725223 47 29394ft 322kts
05-Oct-20 12:17 39.485824 -116.640248 47 29392ft 322kts
05-Oct-20 12:18 39.546612 -116.555807 47 29394ft 321kts
05-Oct-20 12:19 39.607398 -116.471118 47 29401ft 320kts
05-Oct-20 12:20 39.667924 -116.386581 47 29408ft 320kts
05-Oct-20 12:21 39.727825 -116.302679 47 29412ft 319kts
05-Oct-20 12:22 39.788835 -116.216986 47 29411ft 319kts
05-Oct-20 12:23 39.849047 -116.132180 47 29410ft 318kts
05-Oct-20 12:24 39.908866 -116.047677 47 29400ft 318kts
05-Oct-20 12:25 39.969116 -115.962357 47 29390ft 318kts
05-Oct-20 12:26 40.029070 -115.877177 47 29383ft 318kts
05-Oct-20 12:28 40.088900 -115.791956 47 29383ft 318kts
05-Oct-20 12:29 40.148240 -115.707205 47 29383ft 318kts
05-Oct-20 12:30 40.207608 -115.622193 47 29379ft 318kts
05-Oct-20 12:31 40.267769 -115.535786 47 29354ft 319kts
05-Oct-20 12:32 40.327531 -115.449698 47 29347ft 319kts
05-Oct-20 12:33 40.386619 -115.364317 47 29347ft 318kts
05-Oct-20 12:34 40.446009 -115.278287 47 29348ft 319kts
05-Oct-20 12:35 40.507878 -115.194869 46 29346ft 319kts
05-Oct-20 12:36 40.567938 -115.108607 47 29332ft 319kts
05-Oct-20 12:37 40.627667 -115.022108 46 29315ft 320kts
05-Oct-20 12:38 40.687374 -114.935388 46 29305ft 320kts
05-Oct-20 12:39 40.747170 -114.848316 46 29312ft 319kts
05-Oct-20 12:40 40.806599 -114.761499 46 29318ft 319kts
05-Oct-20 12:41 40.865922 -114.674596 46 29319ft 319kts
05-Oct-20 12:42 40.925171 -114.587569 46 29318ft 318kts
05-Oct-20 12:43 40.984238 -114.500529 46 29318ft 318kts
05-Oct-20 12:43 41.033610 -114.427592 46 29318ft 318kts
05-Oct-20 12:45 41.102814 -114.325051 46 29318ft 318kts
05-Oct-20 12:46 41.161612 -114.237635 46 29322ft 319kts
05-Oct-20 12:46 41.211007 -114.164036 46 29316ft 319kts
05-Oct-20 12:47 41.269741 -114.076267 46 29310ft 319kts
05-Oct-20 12:49 41.338329 -113.973417 46 29302ft 319kts
05-Oct-20 12:49 41.387638 -113.899290 45 29303ft 319kts
05-Oct-20 12:50 41.446223 -113.810997 46 29302ft 319kts
05-Oct-20 12:51 41.504870 -113.722289 46 29302ft 319kts
05-Oct-20 12:52 41.563610 -113.633223 45 29301ft 319kts
05-Oct-20 12:53 41.622490 -113.543646 45 29301ft 319kts
05-Oct-20 12:54 41.681216 -113.454040 45 29301ft 320kts
05-Oct-20 12:55 41.739577 -113.364720 45 29301ft 320kts
05-Oct-20 12:56 41.797973 -113.275090 46 29300ft 319kts
05-Oct-20 12:57 41.856090 -113.185607 46 29300ft 320kts
05-Oct-20 12:58 41.914407 -113.095534 46 29298ft 316kts
05-Oct-20 12:59 41.972187 -113.006058 45 29299ft 314kts
05-Oct-20 13:00 42.029152 -112.917530 45 29304ft 313kts
05-Oct-20 13:01 42.086360 -112.828398 45 29313ft 313kts
05-Oct-20 13:02 42.143163 -112.739617 45 29323ft 313kts
05-Oct-20 13:03 42.200172 -112.650234 44 29322ft 314kts
05-Oct-20 13:04 42.257085 -112.560755 44 29322ft 314kts
05-Oct-20 13:05 42.313906 -112.471160 44 29322ft 315kts
05-Oct-20 13:06 42.371113 -112.380643 44 29322ft 315kts
05-Oct-20 13:07 42.427684 -112.290888 45 29320ft 315kts
05-Oct-20 13:08 42.484731 -112.200072 45 29319ft 315kts
05-Oct-20 13:09 42.541664 -112.109186 45 29320ft 315kts
05-Oct-20 13:10 42.598266 -112.018524 45 29233ft 318kts
05-Oct-20 13:11 42.656756 -111.924559 45 28246ft 329kts
05-Oct-20 13:12 42.719855 -111.834417 37 27243ft 328kts
05-Oct-20 13:13 42.787579 -111.752306 37 26243ft 328kts
05-Oct-20 13:14 42.855362 -111.669867 37 25233ft 326kts
05-Oct-20 13:15 42.921670 -111.588951 37 24337ft 320kts
05-Oct-20 13:16 42.986187 -111.509984 37 24262ft 298kts
05-Oct-20 13:17 43.049481 -111.432306 37 23249ft 310kts
05-Oct-20 13:18 43.114062 -111.352837 36 22245ft 314kts
05-Oct-20 13:19 43.179280 -111.272282 37 21255ft 313kts
05-Oct-20 13:20 43.242348 -111.194157 37 19980ft 294kts
05-Oct-20 13:21 43.300405 -111.122107 36 18194ft 281kts
05-Oct-20 13:22 43.358818 -111.049417 37 16360ft 278kts
05-Oct-20 13:23 43.416234 -110.977727 38 14553ft 278kts
05-Oct-20 13:24 43.480661 -110.927386 21 13237ft 261kts
05-Oct-20 13:25 43.541951 -110.885751 41 13069ft 239kts
05-Oct-20 13:26 43.539487 -110.796039 100 13100ft 240kts
05-Oct-20 13:27 43.547556 -110.713285 21 12514ft 239kts
05-Oct-20 13:28 43.606842 -110.681241 17 10954ft 202kts
05-Oct-20 13:29 43.652263 -110.657178 17 10144ft 136kts
05-Oct-20 13:30 43.668008 -110.686177 240 8520ft 104kts
05-Oct-20 13:31 43.651153 -110.712264 223 7248ft 87kts
05-Oct-20 13:32 43.629611 -110.726747 202 6776ft 86kts
05-Oct-20 13:33 43.610155 -110.736335 199 6431ft 16kts
05-Oct-20 13:34 43.608884 -110.735470 157 6430ft 10kts
05-Oct-20 13:35 43.604149 -110.737701 198 6423ft 13kts
05-Oct-20 13:36 43.601109 -110.738186 199 6416ft 7kts
05-Oct-20 13:37 43.599288 -110.739002 118 6414ft 3kts
05-Oct-20 13:38 43.599157 -110.738995 285 6414ft 0kts
05-Oct-20 13:39 43.599157 -110.738996 285 6414ft 0kts
05-Oct-20 13:40 43.599157 -110.738996 285 6414ft 0kts

Navigation Log

Ident Type
Flight plan parsing failed, navigation log unavailable